Time,TemperatureF,DewpointF,PressureIn,WindDirection,WindDirectionDegrees,WindSpeedMPH,WindSpeedGustMPH,Humidity,HourlyPrecipIn,Conditions,Clouds,dailyrainin,SoftwareType,DateUTC
2013-03-25 00:00:00,69.0,66.9,29.71,West,281,2.0,2.0,93,0.00,,,0.18,Wunderground v.1.15,2013-03-25 04:00:00,
2013-03-25 00:05:00,68.9,66.8,29.71,West,281,1.0,2.0,93,0.00,,,0.00,Wunderground v.1.15,2013-03-25 04:05:00,
2013-03-25 00:15:00,68.4,66.3,29.71,West,281,0.0,0.0,93,0.00,,,0.00,Wunderground v.1.15,2013-03-25 04:15:00,
2013-03-25 00:20:00,68.2,66.1,29.71,West,281,0.0,0.0,93,0.00,,,0.00,Wunderground v.1.15,2013-03-25 04:20:00,
2013-03-25 00:25:00,68.1,66.3,29.71,West,281,0.0,0.0,94,0.00,,,0.00,Wunderground v.1.15,2013-03-25 04:25:00,
2013-03-25 00:30:00,68.0,66.2,29.71,West,281,0.0,0.0,94,0.00,,,0.00,Wunderground v.1.15,2013-03-25 04:30:00,
2013-03-25 00:35:00,67.7,65.6,29.71,West,281,0.0,0.0,93,0.00,,,0.00,Wunderground v.1.15,2013-03-25 04:35:00,
2013-03-25 00:40:00,67.6,65.5,29.71,West,281,0.0,0.0,93,0.00,,,0.00,Wunderground v.1.15,2013-03-25 04:40:00,
2013-03-25 00:45:00,67.4,65.6,29.71,West,281,0.0,0.0,94,0.00,,,0.00,Wunderground v.1.15,2013-03-25 04:45:00,
2013-03-25 00:50:00,67.3,65.5,29.71,West,281,0.0,0.0,94,0.00,,,0.00,Wunderground v.1.15,2013-03-25 04:50:00,
2013-03-25 00:55:00,67.2,65.1,29.71,West,281,0.0,0.0,93,0.00,,,0.00,Wunderground v.1.15,2013-03-25 04:55:00,
2013-03-25 01:00:00,67.1,65.3,29.71,West,281,0.0,0.0,94,0.00,,,0.00,Wunderground v.1.15,2013-03-25 05:00:00,
2013-03-25 01:05:00,67.0,65.2,29.71,West,281,0.0,0.0,94,0.00,,,0.00,Wunderground v.1.15,2013-03-25 05:05:00,
2013-03-25 01:15:00,66.8,65.0,29.71,West,281,0.0,0.0,94,0.00,,,0.00,Wunderground v.1.15,2013-03-25 05:15:00,
2013-03-25 01:20:00,66.8,65.0,29.71,West,281,0.0,0.0,94,0.00,,,0.00,Wunderground v.1.15,2013-03-25 05:20:00,
2013-03-25 01:25:00,66.8,65.0,29.71,West,281,0.0,0.0,94,0.00,,,0.00,Wunderground v.1.15,2013-03-25 05:25:00,
2013-03-25 01:30:00,66.7,64.9,29.71,West,281,1.0,3.0,94,0.00,,,0.00,Wunderground v.1.15,2013-03-25 05:30:00,
2013-03-25 01:35:00,66.7,64.9,29.71,West,279,1.0,3.0,94,0.00,,,0.00,Wunderground v.1.15,2013-03-25 05:35:00,
2013-03-25 01:40:00,66.7,64.9,29.71,West,278,1.0,4.0,94,0.00,,,0.00,Wunderground v.1.15,2013-03-25 05:40:00,
2013-03-25 01:50:00,66.6,64.8,29.71,West,277,1.0,1.0,94,0.00,,,0.00,Wunderground v.1.15,2013-03-25 05:50:00,
2013-03-25 01:55:00,66.5,64.7,29.71,West,278,1.0,1.0,94,0.00,,,0.00,Wunderground v.1.15,2013-03-25 05:55:00,
2013-03-25 02:00:00,66.4,64.6,29.72,West,276,1.0,1.0,94,0.00,,,0.00,Wunderground v.1.15,2013-03-25 06:00:00,
2013-03-25 02:05:00,66.3,64.5,29.71,West,277,1.0,2.0,94,0.00,,,0.00,Wunderground v.1.15,2013-03-25 06:05:00,
2013-03-25 02:10:00,66.3,64.5,29.71,West,269,2.0,2.0,94,0.00,,,0.00,Wunderground v.1.15,2013-03-25 06:10:00,
2013-03-25 02:20:00,66.0,64.2,29.72,West,268,2.0,2.0,94,0.00,,,0.00,Wunderground v.1.15,2013-03-25 06:20:00,
2013-03-25 02:25:00,65.9,64.1,29.72,West,269,1.0,2.0,94,0.00,,,0.00,Wunderground v.1.15,2013-03-25 06:25:00,
2013-03-25 02:30:00,65.8,64.0,29.72,West,269,1.0,3.0,94,0.00,,,0.00,Wunderground v.1.15,2013-03-25 06:30:00,
2013-03-25 02:35:00,65.7,63.9,29.72,West,269,1.0,5.0,94,0.00,,,0.00,Wunderground v.1.15,2013-03-25 06:35:00,
2013-03-25 02:40:00,65.6,63.8,29.72,West,269,1.0,1.0,94,0.00,,,0.00,Wunderground v.1.15,2013-03-25 06:40:00,
2013-03-25 02:50:00,65.4,63.6,29.72,West,269,1.0,1.0,94,0.00,,,0.00,Wunderground v.1.15,2013-03-25 06:50:00,
2013-03-25 02:55:00,65.3,63.5,29.72,West,269,1.0,1.0,94,0.00,,,0.00,Wunderground v.1.15,2013-03-25 06:55:00,
2013-03-25 03:00:00,65.2,63.4,29.72,West,271,1.0,4.0,94,0.00,,,0.00,Wunderground v.1.15,2013-03-25 07:00:00,
2013-03-25 03:05:00,65.2,63.4,29.72,West,271,1.0,4.0,94,0.00,,,0.00,Wunderground v.1.15,2013-03-25 07:05:00,
2013-03-25 03:10:00,65.1,63.3,29.72,West,265,2.0,4.0,94,0.00,,,0.01,Wunderground v.1.15,2013-03-25 07:10:00,
2013-03-25 03:15:00,65.1,63.3,29.72,West,264,2.0,4.0,94,0.00,,,0.01,Wunderground v.1.15,2013-03-25 07:15:00,
2013-03-25 03:20:00,65.0,63.2,29.72,West,264,2.0,2.0,94,0.00,,,0.01,Wunderground v.1.15,2013-03-25 07:20:00,
2013-03-25 03:30:00,64.9,63.1,29.72,WNW,286,3.0,3.0,94,0.00,,,0.01,Wunderground v.1.15,2013-03-25 07:30:00,
2013-03-25 03:35:00,64.9,63.1,29.72,West,267,3.0,3.0,94,0.00,,,0.01,Wunderground v.1.15,2013-03-25 07:35:00,
2013-03-25 03:40:00,64.8,63.0,29.72,West,267,2.0,2.0,94,0.00,,,0.01,Wunderground v.1.15,2013-03-25 07:40:00,
2013-03-25 03:45:00,64.7,62.9,29.72,West,266,2.0,2.0,94,0.00,,,0.01,Wunderground v.1.15,2013-03-25 07:45:00,
2013-03-25 03:55:00,64.6,62.8,29.72,WSW,256,2.0,2.0,94,0.00,,,0.01,Wunderground v.1.15,2013-03-25 07:55:00,
2013-03-25 04:00:00,64.5,62.7,29.72,WNW,287,3.0,3.0,94,0.00,,,0.01,Wunderground v.1.15,2013-03-25 08:00:00,
2013-03-25 04:05:00,64.5,62.7,29.72,West,260,3.0,4.0,94,0.00,,,0.01,Wunderground v.1.15,2013-03-25 08:05:00,
2013-03-25 04:10:00,64.4,62.6,29.72,West,275,3.0,3.0,94,0.00,,,0.01,Wunderground v.1.15,2013-03-25 08:10:00,
2013-03-25 04:15:00,64.2,62.4,29.72,West,275,2.0,5.0,94,0.00,,,0.01,Wunderground v.1.15,2013-03-25 08:15:00,
2013-03-25 04:20:00,64.0,62.2,29.72,West,275,2.0,4.0,94,0.00,,,0.01,Wunderground v.1.15,2013-03-25 08:20:00,
2013-03-25 04:25:00,63.9,62.1,29.72,West,273,2.0,4.0,94,0.00,,,0.01,Wunderground v.1.15,2013-03-25 08:25:00,
2013-03-25 04:30:00,63.8,62.0,29.72,WNW,286,3.0,3.0,94,0.00,,,0.01,Wunderground v.1.15,2013-03-25 08:30:00,
2013-03-25 04:35:00,63.8,62.0,29.73,WNW,286,3.0,3.0,94,0.00,,,0.01,Wunderground v.1.15,2013-03-25 08:35:00,
2013-03-25 04:40:00,63.6,61.8,29.73,WNW,298,3.0,5.0,94,0.00,,,0.01,Wunderground v.1.15,2013-03-25 08:40:00,
2013-03-25 04:45:00,63.6,61.8,29.72,West,265,3.0,5.0,94,0.00,,,0.01,Wunderground v.1.15,2013-03-25 08:45:00,
2013-03-25 04:50:00,63.4,61.6,29.72,West,269,3.0,3.0,94,0.00,,,0.01,Wunderground v.1.15,2013-03-25 08:50:00,
2013-03-25 04:55:00,63.4,61.6,29.73,West,267,3.0,4.0,94,0.00,,,0.01,Wunderground v.1.15,2013-03-25 08:55:00,
2013-03-25 05:00:00,63.2,61.4,29.73,WNW,290,4.0,5.0,94,0.00,,,0.01,Wunderground v.1.15,2013-03-25 09:00:00,
2013-03-25 05:05:00,63.1,61.3,29.73,West,266,4.0,5.0,94,0.00,,,0.01,Wunderground v.1.15,2013-03-25 09:05:00,
2013-03-25 05:10:00,62.9,61.1,29.73,West,260,3.0,3.0,94,0.00,,,0.01,Wunderground v.1.15,2013-03-25 09:10:00,
2013-03-25 05:15:00,62.8,61.0,29.73,West,271,3.0,3.0,94,0.00,,,0.01,Wunderground v.1.15,2013-03-25 09:15:00,
2013-03-25 05:20:00,62.7,60.9,29.73,West,275,3.0,3.0,94,0.00,,,0.01,Wunderground v.1.15,2013-03-25 09:20:00,
2013-03-25 05:25:00,62.7,60.9,29.73,WNW,292,4.0,4.0,94,0.00,,,0.01,Wunderground v.1.15,2013-03-25 09:25:00,
2013-03-25 05:30:00,62.7,60.9,29.73,WNW,285,3.0,3.0,94,0.00,,,0.01,Wunderground v.1.15,2013-03-25 09:30:00,
2013-03-25 05:40:00,62.7,60.9,29.74,NW,304,3.0,3.0,94,0.00,,,0.01,Wunderground v.1.15,2013-03-25 09:40:00,
2013-03-25 05:45:00,62.7,60.9,29.74,WNW,286,3.0,4.0,94,0.00,,,0.01,Wunderground v.1.15,2013-03-25 09:45:00,
2013-03-25 05:50:00,62.6,60.5,29.74,West,279,3.0,10.0,93,0.00,,,0.01,Wunderground v.1.15,2013-03-25 09:50:00,
2013-03-25 05:55:00,62.5,60.4,29.74,WNW,284,3.0,10.0,93,0.00,,,0.01,Wunderground v.1.15,2013-03-25 09:55:00,
2013-03-25 06:00:00,62.3,60.2,29.74,WNW,283,2.0,2.0,93,0.00,,,0.01,Wunderground v.1.15,2013-03-25 10:00:00,
2013-03-25 06:05:00,62.2,60.2,29.74,WNW,286,2.0,2.0,93,0.00,,,0.01,Wunderground v.1.15,2013-03-25 10:05:00,
2013-03-25 06:10:00,62.0,60.0,29.75,WNW,296,4.0,4.0,93,0.00,,,0.01,Wunderground v.1.15,2013-03-25 10:10:00,
2013-03-25 06:15:00,61.8,59.8,29.75,WNW,287,4.0,4.0,93,0.00,,,0.01,Wunderground v.1.15,2013-03-25 10:15:00,
2013-03-25 06:20:00,61.7,59.7,29.75,WNW,286,2.0,3.0,93,0.00,,,0.01,Wunderground v.1.15,2013-03-25 10:20:00,
2013-03-25 06:25:00,61.6,59.6,29.75,WNW,286,1.0,3.0,93,0.00,,,0.01,Wunderground v.1.15,2013-03-25 10:25:00,
2013-03-25 06:30:00,61.4,59.4,29.75,West,273,2.0,2.0,93,0.00,,,0.01,Wunderground v.1.15,2013-03-25 10:30:00,
2013-03-25 06:35:00,61.3,59.3,29.75,WNW,285,2.0,3.0,93,0.00,,,0.01,Wunderground v.1.15,2013-03-25 10:35:00,
2013-03-25 06:40:00,61.0,59.0,29.76,WNW,298,2.0,2.0,93,0.00,,,0.01,Wunderground v.1.15,2013-03-25 10:40:00,
2013-03-25 06:45:00,60.7,58.4,29.76,WNW,288,3.0,7.0,92,0.00,,,0.01,Wunderground v.1.15,2013-03-25 10:45:00,
2013-03-25 06:50:00,60.4,58.1,29.76,West,275,2.0,2.0,92,0.00,,,0.01,Wunderground v.1.15,2013-03-25 10:50:00,
2013-03-25 06:55:00,60.1,57.8,29.77,West,275,1.0,2.0,92,0.00,,,0.01,Wunderground v.1.15,2013-03-25 10:55:00,
2013-03-25 07:00:00,59.7,57.4,29.77,West,275,1.0,2.0,92,0.00,,,0.01,Wunderground v.1.15,2013-03-25 11:00:00,
2013-03-25 07:05:00,59.2,56.6,29.77,West,277,1.0,4.0,91,0.00,,,0.01,Wunderground v.1.15,2013-03-25 11:05:00,
2013-03-25 07:15:00,58.6,55.7,29.78,WNW,284,2.0,2.0,90,0.00,,,0.01,Wunderground v.1.15,2013-03-25 11:15:00,
2013-03-25 07:20:00,58.2,55.0,29.78,WNW,290,3.0,6.0,89,0.00,,,0.01,Wunderground v.1.15,2013-03-25 11:20:00,
2013-03-25 07:30:00,57.6,53.8,29.79,West,280,3.0,3.0,87,0.00,,,0.01,Wunderground v.1.15,2013-03-25 11:30:00,
2013-03-25 07:40:00,56.9,52.8,29.79,NW,309,2.0,2.0,86,0.00,,,0.01,Wunderground v.1.15,2013-03-25 11:40:00,
2013-03-25 07:45:00,56.8,52.7,29.79,WNW,295,2.0,2.0,86,0.00,,,0.01,Wunderground v.1.15,2013-03-25 11:45:00,
2013-03-25 07:50:00,56.7,52.6,29.80,West,268,1.0,1.0,86,0.00,,,0.01,Wunderground v.1.15,2013-03-25 11:50:00,
2013-03-25 07:55:00,56.6,52.5,29.80,West,271,1.0,3.0,86,0.00,,,0.01,Wunderground v.1.15,2013-03-25 11:55:00,
2013-03-25 08:00:00,56.7,52.2,29.80,WNW,299,2.0,3.0,85,0.00,,,0.01,Wunderground v.1.15,2013-03-25 12:00:00,
2013-03-25 08:05:00,56.8,52.3,29.80,WNW,295,3.0,4.0,85,0.00,,,0.01,Wunderground v.1.15,2013-03-25 12:05:00,
2013-03-25 08:10:00,56.9,52.4,29.81,WNW,288,2.0,3.0,85,0.00,,,0.01,Wunderground v.1.15,2013-03-25 12:10:00,
2013-03-25 08:20:00,57.3,52.5,29.82,West,273,3.0,3.0,84,0.00,,,0.01,Wunderground v.1.15,2013-03-25 12:20:00,
2013-03-25 08:25:00,57.6,52.8,29.82,NW,304,3.0,3.0,84,0.00,,,0.01,Wunderground v.1.15,2013-03-25 12:25:00,
2013-03-25 08:30:00,57.9,52.8,29.82,WNW,298,3.0,3.0,83,0.00,,,0.01,Wunderground v.1.15,2013-03-25 12:30:00,
2013-03-25 08:35:00,58.0,52.9,29.82,WNW,294,4.0,4.0,83,0.00,,,0.01,Wunderground v.1.15,2013-03-25 12:35:00,
2013-03-25 08:40:00,58.4,53.3,29.83,NW,313,3.0,3.0,83,0.00,,,0.01,Wunderground v.1.15,2013-03-25 12:40:00,
2013-03-25 08:45:00,58.7,53.2,29.83,NW,312,3.0,3.0,82,0.00,,,0.01,Wunderground v.1.15,2013-03-25 12:45:00,
2013-03-25 08:50:00,59.0,53.2,29.83,WNW,286,3.0,3.0,81,0.00,,,0.01,Wunderground v.1.15,2013-03-25 12:50:00,
2013-03-25 09:00:00,59.0,53.2,29.84,NW,307,3.0,3.0,81,0.00,,,0.01,Wunderground v.1.15,2013-03-25 13:00:00,
2013-03-25 09:05:00,59.4,53.2,29.84,NW,313,3.0,4.0,80,0.00,,,0.01,Wunderground v.1.15,2013-03-25 13:05:00,
2013-03-25 09:15:00,59.9,53.7,29.85,NW,306,3.0,6.0,80,0.00,,,0.01,Wunderground v.1.15,2013-03-25 13:15:00,
2013-03-25 09:20:00,60.1,53.6,29.85,NW,304,3.0,3.0,79,0.00,,,0.01,Wunderground v.1.15,2013-03-25 13:20:00,
2013-03-25 09:25:00,60.4,53.9,29.86,WNW,298,3.0,3.0,79,0.00,,,0.01,Wunderground v.1.15,2013-03-25 13:25:00,
2013-03-25 09:30:00,60.6,53.3,29.86,WNW,302,4.0,4.0,77,0.00,,,0.01,Wunderground v.1.15,2013-03-25 13:30:00,
2013-03-25 09:35:00,60.6,53.0,29.86,NW,321,3.0,4.0,76,0.00,,,0.01,Wunderground v.1.15,2013-03-25 13:35:00,
2013-03-25 09:40:00,60.6,52.6,29.86,NW,323,4.0,7.0,75,0.00,,,0.01,Wunderground v.1.15,2013-03-25 13:40:00,
2013-03-25 09:45:00,60.7,52.4,29.87,WNW,296,5.0,7.0,74,0.00,,,0.01,Wunderground v.1.15,2013-03-25 13:45:00,
2013-03-25 09:50:00,60.8,52.1,29.87,West,261,5.0,5.0,73,0.00,,,0.01,Wunderground v.1.15,2013-03-25 13:50:00,
2013-03-25 09:55:00,61.1,52.7,29.87,NW,323,4.0,5.0,74,0.00,,,0.01,Wunderground v.1.15,2013-03-25 13:55:00,
2013-03-25 10:00:00,61.5,52.4,29.87,WNW,286,5.0,9.0,72,0.00,,,0.01,Wunderground v.1.15,2013-03-25 14:00:00,
2013-03-25 10:05:00,61.6,52.5,29.87,West,277,6.0,9.0,72,0.00,,,0.01,Wunderground v.1.15,2013-03-25 14:05:00,
2013-03-25 10:10:00,61.6,51.7,29.88,WNW,302,6.0,6.0,70,0.00,,,0.01,Wunderground v.1.15,2013-03-25 14:10:00,
2013-03-25 10:15:00,61.7,51.8,29.88,WNW,292,6.0,6.0,70,0.00,,,0.01,Wunderground v.1.15,2013-03-25 14:15:00,
2013-03-25 10:25:00,62.0,50.9,29.88,West,271,6.0,7.0,67,0.00,,,0.01,Wunderground v.1.15,2013-03-25 14:25:00,
2013-03-25 10:30:00,62.1,49.8,29.88,NW,305,6.0,8.0,64,0.00,,,0.01,Wunderground v.1.15,2013-03-25 14:30:00,
2013-03-25 10:40:00,62.2,47.2,29.89,West,279,6.0,6.0,58,0.00,,,0.01,Wunderground v.1.15,2013-03-25 14:40:00,
2013-03-25 10:45:00,62.0,45.6,29.89,WNW,302,6.0,6.0,55,0.00,,,0.01,Wunderground v.1.15,2013-03-25 14:45:00,
2013-03-25 10:50:00,62.3,46.9,29.89,WNW,294,6.0,6.0,57,0.00,,,0.01,Wunderground v.1.15,2013-03-25 14:50:00,
2013-03-25 10:55:00,62.7,45.3,29.90,NW,309,6.0,6.0,53,0.00,,,0.01,Wunderground v.1.15,2013-03-25 14:55:00,
2013-03-25 11:00:00,63.0,44.6,29.90,WNW,300,6.0,7.0,51,0.00,,,0.01,Wunderground v.1.15,2013-03-25 15:00:00,
2013-03-25 11:05:00,63.2,44.2,29.90,NNW,330,6.0,7.0,50,0.00,,,0.01,Wunderground v.1.15,2013-03-25 15:05:00,
2013-03-25 11:10:00,63.7,45.2,29.90,West,261,6.0,6.0,51,0.00,,,0.01,Wunderground v.1.15,2013-03-25 15:10:00,
2013-03-25 11:15:00,64.0,43.4,29.90,West,267,6.0,6.0,47,0.00,,,0.01,Wunderground v.1.15,2013-03-25 15:15:00,
2013-03-25 11:20:00,64.2,44.1,29.90,NW,314,6.0,6.0,48,0.00,,,0.01,Wunderground v.1.15,2013-03-25 15:20:00,
2013-03-25 11:30:00,65.3,44.5,29.91,West,270,5.0,6.0,47,0.00,,,0.01,Wunderground v.1.15,2013-03-25 15:30:00,
2013-03-25 11:35:00,65.5,43.0,29.91,WNW,296,5.0,11.0,44,0.00,,,0.01,Wunderground v.1.15,2013-03-25 15:35:00,
2013-03-25 11:40:00,65.4,42.3,29.91,WNW,298,6.0,7.0,43,0.00,,,0.01,Wunderground v.1.15,2013-03-25 15:40:00,
2013-03-25 11:45:00,65.6,42.5,29.91,NNW,338,7.0,10.0,43,0.00,,,0.01,Wunderground v.1.15,2013-03-25 15:45:00,
2013-03-25 11:50:00,65.7,42.0,29.91,NW,317,8.0,8.0,42,0.00,,,0.01,Wunderground v.1.15,2013-03-25 15:50:00,
2013-03-25 11:55:00,65.9,40.2,29.91,WNW,288,8.0,8.0,39,0.00,,,0.01,Wunderground v.1.15,2013-03-25 15:55:00,
2013-03-25 12:00:00,66.1,41.7,29.91,NNW,334,8.0,8.0,41,0.00,,,0.01,Wunderground v.1.15,2013-03-25 16:00:00,
2013-03-25 12:05:00,66.8,41.7,29.91,WNW,294,6.0,8.0,40,0.00,,,0.01,Wunderground v.1.15,2013-03-25 16:05:00,
2013-03-25 12:10:00,67.1,42.0,29.91,NW,321,6.0,6.0,40,0.00,,,0.01,Wunderground v.1.15,2013-03-25 16:10:00,
2013-03-25 12:20:00,68.3,43.7,29.91,NW,304,5.0,5.0,41,0.00,,,0.01,Wunderground v.1.15,2013-03-25 16:20:00,
2013-03-25 12:25:00,68.5,43.2,29.90,NNW,327,6.0,6.0,40,0.00,,,0.01,Wunderground v.1.15,2013-03-25 16:25:00,
2013-03-25 12:30:00,68.9,44.2,29.90,West,276,5.0,10.0,41,0.00,,,0.01,Wunderground v.1.15,2013-03-25 16:30:00,
2013-03-25 12:35:00,69.0,42.3,29.90,West,275,5.0,10.0,38,0.00,,,0.01,Wunderground v.1.15,2013-03-25 16:35:00,
2013-03-25 12:40:00,68.8,41.5,29.90,West,261,5.0,8.0,37,0.00,,,0.01,Wunderground v.1.15,2013-03-25 16:40:00,
2013-03-25 12:45:00,68.7,39.9,29.90,NW,305,4.0,9.0,35,0.00,,,0.01,Wunderground v.1.15,2013-03-25 16:45:00,
2013-03-25 12:50:00,68.9,41.5,29.89,WNW,300,4.0,10.0,37,0.00,,,0.01,Wunderground v.1.15,2013-03-25 16:50:00,
2013-03-25 12:55:00,69.4,41.3,29.89,NW,312,4.0,10.0,36,0.00,,,0.01,Wunderground v.1.15,2013-03-25 16:55:00,
2013-03-25 13:00:00,70.0,43.2,29.89,WNW,288,4.0,4.0,38,0.00,,,0.01,Wunderground v.1.15,2013-03-25 17:00:00,
2013-03-25 13:05:00,70.4,41.4,29.89,WNW,294,3.0,4.0,35,0.00,,,0.01,Wunderground v.1.15,2013-03-25 17:05:00,
2013-03-25 13:10:00,70.7,41.7,29.89,WNW,292,2.0,2.0,35,0.00,,,0.01,Wunderground v.1.15,2013-03-25 17:10:00,
2013-03-25 13:20:00,71.5,40.1,29.88,WNW,297,4.0,6.0,32,0.00,,,0.01,Wunderground v.1.15,2013-03-25 17:20:00,
2013-03-25 13:25:00,71.5,40.1,29.88,West,269,4.0,6.0,32,0.00,,,0.01,Wunderground v.1.15,2013-03-25 17:25:00,
2013-03-25 13:30:00,71.8,41.9,29.88,NW,321,3.0,4.0,34,0.00,,,0.01,Wunderground v.1.15,2013-03-25 17:30:00,
2013-03-25 13:35:00,72.3,41.6,29.87,NW,313,3.0,4.0,33,0.00,,,0.01,Wunderground v.1.15,2013-03-25 17:35:00,
2013-03-25 13:40:00,72.8,42.0,29.86,WNW,287,4.0,4.0,33,0.00,,,0.01,Wunderground v.1.15,2013-03-25 17:40:00,
2013-03-25 13:45:00,73.3,41.6,29.86,NW,316,5.0,5.0,32,0.00,,,0.01,Wunderground v.1.15,2013-03-25 17:45:00,
2013-03-25 13:50:00,73.6,41.9,29.86,NW,308,5.0,5.0,32,0.00,,,0.01,Wunderground v.1.15,2013-03-25 17:50:00,
2013-03-25 14:00:00,73.5,41.8,29.86,WSW,244,4.0,4.0,32,0.00,,,0.01,Wunderground v.1.15,2013-03-25 18:00:00,
2013-03-25 14:05:00,74.0,41.4,29.85,WNW,289,3.0,11.0,31,0.00,,,0.01,Wunderground v.1.15,2013-03-25 18:05:00,
2013-03-25 14:15:00,74.0,39.7,29.85,West,275,5.0,7.0,29,0.00,,,0.01,Wunderground v.1.15,2013-03-25 18:15:00,
2013-03-25 14:20:00,73.6,39.4,29.85,West,280,7.0,7.0,29,0.00,,,0.01,Wunderground v.1.15,2013-03-25 18:20:00,
2013-03-25 14:30:00,73.9,40.5,29.85,WNW,288,5.0,8.0,30,0.00,,,0.01,Wunderground v.1.15,2013-03-25 18:30:00,
2013-03-25 14:35:00,74.1,38.0,29.85,WNW,302,5.0,8.0,27,0.00,,,0.01,Wunderground v.1.15,2013-03-25 18:35:00,
2013-03-25 14:40:00,74.0,38.8,29.85,WNW,294,5.0,5.0,28,0.00,,,0.01,Wunderground v.1.15,2013-03-25 18:40:00,
2013-03-25 14:45:00,74.1,38.9,29.85,NNW,327,4.0,5.0,28,0.00,,,0.01,Wunderground v.1.15,2013-03-25 18:45:00,
2013-03-25 14:50:00,74.1,40.7,29.85,NW,321,3.0,3.0,30,0.00,,,0.01,Wunderground v.1.15,2013-03-25 18:50:00,
2013-03-25 14:55:00,74.1,38.9,29.85,West,275,5.0,12.0,28,0.00,,,0.01,Wunderground v.1.15,2013-03-25 18:55:00,
2013-03-25 15:00:00,73.5,37.5,29.85,WNW,283,7.0,7.0,27,0.00,,,0.01,Wunderground v.1.15,2013-03-25 19:00:00,
2013-03-25 15:05:00,73.3,37.3,29.85,West,268,6.0,7.0,27,0.00,,,0.01,Wunderground v.1.15,2013-03-25 19:05:00,
2013-03-25 15:10:00,73.2,37.2,29.85,West,275,6.0,6.0,27,0.00,,,0.01,Wunderground v.1.15,2013-03-25 19:10:00,
2013-03-25 15:15:00,73.2,35.2,29.85,WNW,295,7.0,7.0,25,0.00,,,0.01,Wunderground v.1.15,2013-03-25 19:15:00,
2013-03-25 15:20:00,73.2,36.2,29.85,WNW,298,6.0,6.0,26,0.00,,,0.01,Wunderground v.1.15,2013-03-25 19:20:00,
2013-03-25 15:25:00,73.2,37.2,29.85,WNW,297,5.0,15.0,27,0.00,,,0.01,Wunderground v.1.15,2013-03-25 19:25:00,
2013-03-25 15:30:00,73.1,38.0,29.85,West,274,5.0,9.0,28,0.00,,,0.01,Wunderground v.1.15,2013-03-25 19:30:00,
2013-03-25 15:35:00,73.3,37.3,29.85,WNW,300,5.0,9.0,27,0.00,,,0.01,Wunderground v.1.15,2013-03-25 19:35:00,
2013-03-25 15:40:00,73.4,37.4,29.85,WNW,294,5.0,5.0,27,0.00,,,0.01,Wunderground v.1.15,2013-03-25 19:40:00,
2013-03-25 15:45:00,73.1,36.2,29.85,West,277,7.0,10.0,26,0.00,,,0.01,Wunderground v.1.15,2013-03-25 19:45:00,
2013-03-25 15:50:00,72.5,36.6,29.85,West,271,7.0,7.0,27,0.00,,,0.01,Wunderground v.1.15,2013-03-25 19:50:00,
2013-03-25 15:55:00,72.1,36.3,29.85,West,271,7.0,7.0,27,0.00,,,0.01,Wunderground v.1.15,2013-03-25 19:55:00,
2013-03-25 16:00:00,71.9,37.0,29.85,West,267,6.0,6.0,28,0.00,,,0.01,Wunderground v.1.15,2013-03-25 20:00:00,
2013-03-25 16:05:00,72.2,37.3,29.85,West,267,5.0,6.0,28,0.00,,,0.01,Wunderground v.1.15,2013-03-25 20:05:00,
2013-03-25 16:10:00,72.3,36.4,29.85,WSW,241,6.0,6.0,27,0.00,,,0.01,Wunderground v.1.15,2013-03-25 20:10:00,
2013-03-25 16:15:00,72.2,36.3,29.85,WSW,255,6.0,10.0,27,0.00,,,0.01,Wunderground v.1.15,2013-03-25 20:15:00,
2013-03-25 16:20:00,71.7,35.9,29.85,WNW,284,6.0,6.0,27,0.00,,,0.01,Wunderground v.1.15,2013-03-25 20:20:00,
2013-03-25 16:25:00,71.7,36.8,29.85,West,273,6.0,6.0,28,0.00,,,0.01,Wunderground v.1.15,2013-03-25 20:25:00,
2013-03-25 16:30:00,71.9,37.0,29.86,WSW,252,5.0,11.0,28,0.00,,,0.01,Wunderground v.1.15,2013-03-25 20:30:00,
2013-03-25 16:55:00,71.4,36.6,29.86,NW,307,4.0,9.0,28,0.00,,,0.01,Wunderground v.1.15,2013-03-25 20:55:00,
2013-03-25 17:00:00,71.5,35.7,29.86,West,260,3.0,9.0,27,0.00,,,0.01,Wunderground v.1.15,2013-03-25 21:00:00,
2013-03-25 17:05:00,71.1,36.3,29.86,NW,305,5.0,9.0,28,0.00,,,0.01,Wunderground v.1.15,2013-03-25 21:05:00,
2013-03-25 17:15:00,70.6,34.0,29.86,WNW,294,4.0,7.0,26,0.00,,,0.01,Wunderground v.1.15,2013-03-25 21:15:00,
2013-03-25 17:20:00,70.2,33.7,29.86,West,263,6.0,6.0,26,0.00,,,0.01,Wunderground v.1.15,2013-03-25 21:20:00,
2013-03-25 17:30:00,69.5,32.1,29.86,NW,304,6.0,6.0,25,0.00,,,0.01,Wunderground v.1.15,2013-03-25 21:30:00,
2013-03-25 17:35:00,69.7,34.2,29.86,West,261,4.0,6.0,27,0.00,,,0.01,Wunderground v.1.15,2013-03-25 21:35:00,
2013-03-25 17:40:00,69.9,32.5,29.86,WNW,298,3.0,5.0,25,0.00,,,0.01,Wunderground v.1.15,2013-03-25 21:40:00,
2013-03-25 17:45:00,69.8,32.4,29.86,West,259,3.0,5.0,25,0.00,,,0.01,Wunderground v.1.15,2013-03-25 21:45:00,
2013-03-25 17:50:00,69.7,31.3,29.86,West,277,3.0,3.0,24,0.00,,,0.01,Wunderground v.1.15,2013-03-25 21:50:00,
2013-03-25 17:55:00,69.7,32.3,29.86,WNW,286,2.0,3.0,25,0.00,,,0.01,Wunderground v.1.15,2013-03-25 21:55:00,
2013-03-25 18:00:00,69.7,31.3,29.86,SW,225,1.0,5.0,24,0.00,,,0.01,Wunderground v.1.15,2013-03-25 22:00:00,
2013-03-25 18:05:00,69.0,30.7,29.86,West,261,2.0,5.0,24,0.00,,,0.01,Wunderground v.1.15,2013-03-25 22:05:00,
2013-03-25 18:15:00,68.5,31.3,29.87,WNW,284,1.0,2.0,25,0.00,,,0.01,Wunderground v.1.15,2013-03-25 22:15:00,
2013-03-25 18:20:00,68.4,33.1,29.87,SW,236,1.0,1.0,27,0.00,,,0.01,Wunderground v.1.15,2013-03-25 22:20:00,
2013-03-25 18:25:00,68.3,32.1,29.87,WNW,292,1.0,3.0,26,0.00,,,0.01,Wunderground v.1.15,2013-03-25 22:25:00,
2013-03-25 18:30:00,67.7,33.4,29.87,West,260,2.0,2.0,28,0.00,,,0.01,Wunderground v.1.15,2013-03-25 22:30:00,
2013-03-25 18:35:00,67.3,32.1,29.88,West,259,1.0,2.0,27,0.00,,,0.01,Wunderground v.1.15,2013-03-25 22:35:00,
2013-03-25 18:45:00,66.6,33.3,29.88,WNW,288,2.0,10.0,29,0.00,,,0.01,Wunderground v.1.15,2013-03-25 22:45:00,
2013-03-25 18:50:00,66.0,33.7,29.89,West,271,3.0,3.0,30,0.00,,,0.01,Wunderground v.1.15,2013-03-25 22:50:00,
2013-03-25 19:00:00,65.0,33.6,29.89,West,276,3.0,5.0,31,0.00,,,0.01,Wunderground v.1.15,2013-03-25 23:00:00,
2013-03-25 19:05:00,64.4,33.9,29.89,WSW,257,3.0,5.0,32,0.00,,,0.01,Wunderground v.1.15,2013-03-25 23:05:00,
2013-03-25 19:15:00,63.4,34.5,29.90,West,260,3.0,4.0,34,0.00,,,0.01,Wunderground v.1.15,2013-03-25 23:15:00,
2013-03-25 19:20:00,63.0,34.9,29.90,WNW,295,2.0,7.0,35,0.00,,,0.01,Wunderground v.1.15,2013-03-25 23:20:00,
2013-03-25 19:25:00,62.4,35.1,29.90,WNW,289,3.0,7.0,36,0.00,,,0.01,Wunderground v.1.15,2013-03-25 23:25:00,
2013-03-25 19:30:00,61.9,35.3,29.90,WNW,292,3.0,5.0,37,0.00,,,0.01,Wunderground v.1.15,2013-03-25 23:30:00,
2013-03-25 19:35:00,61.4,35.5,29.91,WNW,284,3.0,5.0,38,0.00,,,0.01,Wunderground v.1.15,2013-03-25 23:35:00,
2013-03-25 19:40:00,60.9,35.8,29.91,West,279,3.0,4.0,39,0.00,,,0.01,Wunderground v.1.15,2013-03-25 23:40:00,
2013-03-25 19:45:00,60.5,36.0,29.91,West,279,3.0,4.0,40,0.00,,,0.01,Wunderground v.1.15,2013-03-25 23:45:00,
2013-03-25 19:50:00,60.0,36.2,29.91,WNW,286,3.0,3.0,41,0.00,,,0.01,Wunderground v.1.15,2013-03-25 23:50:00,
2013-03-25 19:55:00,59.7,36.6,29.92,WSW,238,2.0,3.0,42,0.00,,,0.01,Wunderground v.1.15,2013-03-25 23:55:00,
2013-03-25 20:00:00,59.0,35.9,29.92,WSW,252,2.0,2.0,42,0.00,,,0.01,Wunderground v.1.15,2013-03-26 00:00:00,
2013-03-25 20:05:00,58.9,37.0,29.92,West,278,1.0,2.0,44,0.00,,,0.01,Wunderground v.1.15,2013-03-26 00:05:00,
2013-03-25 20:10:00,58.4,37.1,29.92,WNW,295,1.0,7.0,45,0.00,,,0.01,Wunderground v.1.15,2013-03-26 00:10:00,
2013-03-25 20:15:00,58.0,37.3,29.93,WNW,295,2.0,7.0,46,0.00,,,0.01,Wunderground v.1.15,2013-03-26 00:15:00,
2013-03-25 20:20:00,57.6,37.5,29.93,WNW,283,2.0,2.0,47,0.00,,,0.01,Wunderground v.1.15,2013-03-26 00:20:00,
2013-03-25 20:30:00,56.9,37.9,29.94,West,275,2.0,2.0,49,0.00,,,0.01,Wunderground v.1.15,2013-03-26 00:30:00,
2013-03-25 20:35:00,56.6,38.2,29.94,WNW,283,2.0,5.0,50,0.00,,,0.01,Wunderground v.1.15,2013-03-26 00:35:00,
2013-03-25 20:40:00,56.4,38.5,29.94,West,277,2.0,2.0,51,0.00,,,0.01,Wunderground v.1.15,2013-03-26 00:40:00,
2013-03-25 20:45:00,56.1,38.7,29.94,West,271,2.0,3.0,52,0.00,,,0.01,Wunderground v.1.15,2013-03-26 00:45:00,
2013-03-25 20:50:00,55.8,38.4,29.94,WNW,288,3.0,3.0,52,0.00,,,0.01,Wunderground v.1.15,2013-03-26 00:50:00,
2013-03-25 20:55:00,55.5,38.6,29.95,West,269,3.0,3.0,53,0.00,,,0.01,Wunderground v.1.15,2013-03-26 00:55:00,
2013-03-25 21:00:00,55.3,38.4,29.95,WNW,282,2.0,2.0,53,0.00,,,0.01,Wunderground v.1.15,2013-03-26 01:00:00,
2013-03-25 21:05:00,55.0,38.6,29.95,West,281,1.0,2.0,54,0.00,,,0.01,Wunderground v.1.15,2013-03-26 01:05:00,
2013-03-25 21:10:00,54.6,38.3,29.95,West,280,0.0,1.0,54,0.00,,,0.01,Wunderground v.1.15,2013-03-26 01:10:00,
2013-03-25 21:15:00,54.3,38.5,29.96,West,281,0.0,1.0,55,0.00,,,0.01,Wunderground v.1.15,2013-03-26 01:15:00,
2013-03-25 21:20:00,54.0,38.2,29.96,West,279,0.0,0.0,55,0.00,,,0.01,Wunderground v.1.15,2013-03-26 01:20:00,
2013-03-25 21:25:00,53.7,38.4,29.96,West,279,0.0,0.0,56,0.00,,,0.01,Wunderground v.1.15,2013-03-26 01:25:00,
2013-03-25 21:30:00,53.4,38.5,29.97,West,280,0.0,0.0,57,0.00,,,0.01,Wunderground v.1.15,2013-03-26 01:30:00,
2013-03-25 21:35:00,53.1,38.3,29.97,West,280,0.0,0.0,57,0.00,,,0.01,Wunderground v.1.15,2013-03-26 01:35:00,
2013-03-25 21:40:00,52.9,38.1,29.98,West,280,0.0,0.0,57,0.00,,,0.01,Wunderground v.1.15,2013-03-26 01:40:00,
2013-03-25 21:45:00,52.6,38.2,29.98,West,280,0.0,0.0,58,0.00,,,0.01,Wunderground v.1.15,2013-03-26 01:45:00,
2013-03-25 21:50:00,52.4,38.0,29.99,West,280,0.0,0.0,58,0.00,,,0.01,Wunderground v.1.15,2013-03-26 01:50:00,
2013-03-25 21:55:00,52.2,38.3,29.99,West,280,0.0,0.0,59,0.00,,,0.01,Wunderground v.1.15,2013-03-26 01:55:00,
2013-03-25 22:00:00,52.0,38.5,29.99,West,280,0.0,2.0,60,0.00,,,0.01,Wunderground v.1.15,2013-03-26 02:00:00,
2013-03-25 22:05:00,51.9,38.4,29.99,West,280,0.0,2.0,60,0.00,,,0.01,Wunderground v.1.15,2013-03-26 02:05:00,
2013-03-25 22:10:00,51.7,38.7,29.99,West,280,0.0,0.0,61,0.00,,,0.01,Wunderground v.1.15,2013-03-26 02:10:00,
2013-03-25 22:20:00,51.3,38.7,30.00,West,280,0.0,0.0,62,0.00,,,0.01,Wunderground v.1.15,2013-03-26 02:20:00,
2013-03-25 22:25:00,51.1,38.9,30.00,West,279,0.0,0.0,63,0.00,,,0.01,Wunderground v.1.15,2013-03-26 02:25:00,
2013-03-25 22:30:00,51.0,39.2,30.00,West,279,0.0,0.0,64,0.00,,,0.01,Wunderground v.1.15,2013-03-26 02:30:00,
2013-03-25 22:40:00,50.7,39.0,30.00,West,279,0.0,0.0,64,0.00,,,0.01,Wunderground v.1.15,2013-03-26 02:40:00,
2013-03-25 22:45:00,50.6,39.3,30.00,West,279,0.0,1.0,65,0.00,,,0.01,Wunderground v.1.15,2013-03-26 02:45:00,
2013-03-25 22:50:00,50.5,39.6,30.00,West,279,1.0,2.0,66,0.00,,,0.01,Wunderground v.1.15,2013-03-26 02:50:00,
2013-03-25 23:00:00,50.3,39.8,30.01,West,279,0.0,0.0,67,0.00,,,0.01,Wunderground v.1.15,2013-03-26 03:00:00,
2013-03-25 23:05:00,50.1,39.6,30.01,West,279,0.0,0.0,67,0.00,,,0.01,Wunderground v.1.15,2013-03-26 03:05:00,
2013-03-25 23:10:00,49.9,39.4,30.01,West,279,0.0,0.0,67,0.00,,,0.01,Wunderground v.1.15,2013-03-26 03:10:00,
2013-03-25 23:15:00,49.6,39.5,30.01,West,279,0.0,0.0,68,0.00,,,0.01,Wunderground v.1.15,2013-03-26 03:15:00,
2013-03-25 23:20:00,49.2,39.1,30.01,West,279,0.0,0.0,68,0.00,,,0.01,Wunderground v.1.15,2013-03-26 03:20:00,
2013-03-25 23:25:00,48.8,39.1,30.01,West,279,0.0,1.0,69,0.00,,,0.01,Wunderground v.1.15,2013-03-26 03:25:00,
2013-03-25 23:30:00,48.5,39.2,30.01,West,279,0.0,0.0,70,0.00,,,0.01,Wunderground v.1.15,2013-03-26 03:30:00,
2013-03-25 23:35:00,48.4,39.1,30.01,West,279,0.0,0.0,70,0.00,,,0.01,Wunderground v.1.15,2013-03-26 03:35:00,
2013-03-25 23:40:00,48.2,38.9,30.01,West,279,0.0,0.0,70,0.00,,,0.01,Wunderground v.1.15,2013-03-26 03:40:00,
2013-03-25 23:45:00,47.9,38.6,30.02,West,279,0.0,0.0,70,0.00,,,0.01,Wunderground v.1.15,2013-03-26 03:45:00,
2013-03-25 23:50:00,47.6,38.7,30.02,West,279,0.0,0.0,71,0.00,,,0.01,Wunderground v.1.15,2013-03-26 03:50:00,
2013-03-25 23:55:00,47.4,38.5,30.02,West,279,0.0,0.0,71,0.00,,,0.01,Wunderground v.1.15,2013-03-26 03:55:00,